Latest Coastal Weather Observations for Flinders Island Airport

IDT60701

Issued at 11:02 pm EST Saturday 30 July 2016 (issued every 10 minutes, with the page automatically refreshed every 10 minutes)

About coastal observations | Map of coastal stations | Coastal observations for TAS | Marine services | Other Formats
Station Details ID: 099005 Name: FLINDERS ISLAND AIRPORT Lat: -40.09 Lon: 148.00 Height: 9.0 m
Data from the previous 72 hours. | See also: Recent months at Flinders Island Airport
Date/Time
EST
Temp
°C
Wind Pressure Rain since
9am
mm
Weather Cloud Vis
km
Sea
Height
m
Swell
Dir  Spd
kts
Gust
kts
hPa Trend Height
m
Period
s
Dir
30/11:00pm 12.8 N 11 16 1011.5 - 0.0 - Cloudy 10 - - - -
30/10:30pm 12.5 N 13 20 1011.6 - 0.0 - Cloudy 10 - - - -
30/10:00pm 12.3 N 15 23 1012.1 - 0.0 - Cloudy 10 - - - -
30/09:30pm 11.8 N 16 23 1012.4 - 0.0 - Partly cloudy 10 - - - -
30/09:00pm 11.5 NNE 15 20 1012.5 - 0.0 - Cloudy 10 - - - -
30/08:30pm 11.3 NNE 13 19 1012.4 - 0.0 - Partly cloudy 10 - - - -
30/08:00pm 11.2 NNE 10 14 1013.0 - 0.0 - - 10 - - - -
30/07:30pm 11.0 NNE 11 15 1013.4 - 0.0 - Partly cloudy 10 - - - -
30/07:00pm 11.2 NNE 11 15 1013.9 - 0.0 - Partly cloudy 10 - - - -
30/06:30pm 11.4 NNE 11 15 1014.4 - 0.0 - Partly cloudy 10 - - - -
30/06:00pm 11.3 NNE 11 15 1014.0 - 0.0 - Cloudy 10 - - - -
30/05:30pm 11.4 NNE 9 12 1014.0 - 0.0 - - 10 - - - -
30/05:00pm 11.7 N 4 6 1014.3 - 0.0 - Partly cloudy 10 - - - -
30/04:30pm 12.3 NNW 6 8 1015.2 - 0.0 - Partly cloudy 10 - - - -
30/04:00pm 12.5 NNW 7 9 1015.3 - 0.0 - Partly cloudy 10 - - - -
30/03:30pm 12.8 NW 11 14 1015.7 - 0.0 - Partly cloudy 10 - - - -
30/03:00pm 13.4 NW 8 11 1015.9 - 0.0 - Mostly clear 10 - - - -
30/02:30pm 12.6 WNW 9 11 1016.4 - 0.0 - Partly cloudy 10 - - - -
30/02:00pm 13.2 WNW 11 14 1016.6 - 0.0 - - 10 - - - -
30/01:30pm 13.0 NW 9 12 1016.9 - 0.0 - - 10 - - - -
30/01:00pm 12.8 WNW 8 11 1017.6 - 0.0 - - 10 - - - -
30/12:30pm 12.3 WNW 7 10 1018.1 - 0.0 - Partly cloudy 10 - - - -
30/12:00pm 12.4 WNW 7 9 1018.5 - 0.0 - Mostly clear 10 - - - -
30/11:30am 11.7 WNW 8 10 1019.2 - 0.0 - Cloudy 10 - - - -
30/11:00am 11.3 WNW 6 8 1019.5 - 0.0 - Cloudy 10 - - - -
30/10:30am 11.2 W 9 11 1019.9 - 0.0 - Partly cloudy 10 - - - -
30/10:00am 11.2 W 8 10 1019.9 - 0.0 - - 10 - - - -
30/09:30am 11.0 WNW 9 13 1020.1 - 0.0 - Partly cloudy 10 - - - -
30/09:00am 10.3 W 10 15 1020.1 - 0.6 - Cloudy 10 - - - -
30/08:30am 10.1 WSW 9 12 1020.2 - 0.6 - Cloudy 10 - - - -
30/08:00am 10.0 WSW 10 14 1020.2 - 0.6 - Cloudy 10 - - - -
30/07:30am 8.7 WSW 9 10 1020.3 - 0.6 - Partly cloudy 10 - - - -
30/07:00am 8.4 WSW 10 15 1020.0 - 0.6 - Partly cloudy 10 - - - -
30/06:30am 8.7 WSW 11 14 1019.9 - 0.6 - Partly cloudy 10 - - - -
30/06:00am 9.1 W 10 15 1019.8 - 0.6 - Mostly cloudy 10 - - - -
30/05:30am 9.2 W 13 16 1019.8 - 0.6 - Partly cloudy 10 - - - -
30/05:00am 9.3 W 11 13 1019.5 - 0.6 - Partly cloudy 10 - - - -
30/04:30am 8.5 WSW 12 14 1019.3 - 0.6 - Partly cloudy 10 - - - -
30/04:00am 9.0 WSW 15 18 1019.0 - 0.6 - - 10 - - - -
30/03:30am 9.2 WSW 16 18 1018.9 - 0.6 - - 10 - - - -
30/03:00am 9.3 WSW 15 18 1018.7 - 0.6 - - 10 - - - -
30/02:30am 9.1 WSW 15 18 1018.5 - 0.6 - Partly cloudy 10 - - - -
30/02:00am 9.5 WSW 19 23 1018.5 - 0.6 - - 10 - - - -
30/01:30am 9.8 WSW 18 22 1018.3 - 0.6 - Partly cloudy 10 - - - -
30/01:00am 9.9 WSW 17 24 1018.0 - 0.6 - - 10 - - - -
30/12:30am 10.1 WSW 20 26 1017.8 - 0.6 - Partly cloudy 10 - - - -
30/12:00am 10.3 WSW 20 24 1017.9 - 0.6 - Mostly clear 10 - - - -
 
Date/Time
EST
Temp
°C
Wind Pressure Rain since
9am
mm
Weather Cloud Vis
km
Sea
Height
m
Swell
Dir  Spd
kts
Gust
kts
hPa Trend Height
m
Period
s
Dir
29/11:30pm 10.5 WSW 23 29 1017.6 - 0.6 - - 10 - - - -
29/11:00pm 10.9 WSW 24 30 1017.1 - 0.6 - Partly cloudy 10 - - - -
29/10:30pm 11.0 WSW 26 32 1016.7 - 0.6 - - 10 - - - -
29/10:00pm 11.3 WSW 25 31 1016.3 - 0.6 - - 10 - - - -
29/09:30pm 11.4 WSW 25 30 1016.1 - 0.6 - - 10 - - - -
29/09:00pm 11.7 WSW 27 33 1015.5 - 0.6 - Mostly clear 10 - - - -
29/08:30pm 11.8 WSW 25 30 1015.2 - 0.6 - Partly cloudy 10 - - - -
29/08:00pm 12.0 W 26 31 1014.7 - 0.6 - Partly cloudy 10 - - - -
29/07:30pm 12.1 W 27 32 1014.2 - 0.6 - Partly cloudy 10 - - - -
29/07:00pm 12.3 W 31 42 1013.9 - 0.6 - Partly cloudy 10 - - - -
29/06:47pm 12.4 W 28 38 1013.6 - 0.6 - Partly cloudy 10 - - - -
29/06:30pm 12.5 W 28 36 1013.3 - 0.6 - Partly cloudy 10 - - - -
29/06:00pm 12.3 W 25 31 1012.8 - 0.6 - Partly cloudy 10 - - - -
29/05:30pm 12.3 W 29 38 1012.8 - 0.6 - Partly cloudy 10 - - - -
29/05:15pm 12.5 W 27 37 1012.7 - 0.6 - Partly cloudy 10 - - - -
29/05:00pm 12.4 W 26 32 1012.3 - 0.6 - Partly cloudy 10 - - - -
29/04:41pm 12.6 W 28 38 1012.3 - 0.6 - Partly cloudy 10 - - - -
29/04:30pm 12.6 W 27 34 1012.3 - 0.6 - - 10 - - - -
29/04:07pm 12.8 W 23 33 1012.1 - 0.6 - - 10 - - - -
29/04:00pm 12.8 W 24 32 1012.1 - 0.6 - - 10 - - - -
29/03:30pm 13.1 W 25 33 1012.2 - 0.6 - - 10 - - - -
29/03:00pm 13.3 W 24 31 1012.2 - 0.6 - - 10 - - - -
29/02:30pm 13.6 W 24 32 1012.0 - 0.6 - Partly cloudy 10 - - - -
29/02:00pm 13.4 W 26 33 1011.8 - 0.6 - Partly cloudy 10 - - - -
29/01:31pm 13.6 W 24 36 1011.9 - 0.6 - Partly cloudy 10 - - - -
29/01:30pm 13.6 W 23 31 1011.9 - 0.6 - Partly cloudy 10 - - - -
29/01:00pm 13.4 W 26 36 1012.3 - 0.6 - Partly cloudy 10 - - - -
29/12:33pm 12.4 W 24 35 1012.5 - 0.6 - Partly cloudy 10 - - - -
29/12:32pm 12.4 W 23 32 1012.5 - 0.6 - Partly cloudy 10 - - - -
29/12:30pm 12.5 W 23 29 1012.6 - 0.6 - Partly cloudy - - - - -
29/12:05pm 12.4 W 25 31 1012.6 - 0.2 - Partly cloudy 5 - - - -
29/12:01pm 13.0 W 25 31 1012.6 - 0.0 - Partly cloudy 10 - - - -
29/12:00pm 13.0 W 25 32 1012.5 - 0.0 - Cloudy 10 - - - -
29/11:49am 13.6 WNW 24 34 1012.6 - 0.0 - Partly cloudy 10 - - - -
29/11:30am 13.6 WNW 23 30 1012.9 - 0.0 - Partly cloudy 10 - - - -
29/11:16am 13.4 W 18 30 1013.1 - 0.0 - Partly cloudy 10 - - - -
29/11:00am 12.9 W 19 24 1013.4 - 0.0 - Partly cloudy 10 - - - -
29/10:57am 12.7 W 19 26 1013.4 - 0.0 - Partly cloudy 10 - - - -
29/10:39am 12.3 W 20 27 1013.7 - 0.0 - Partly cloudy 5 - - - -
29/10:30am 12.9 W 20 28 1013.7 - 0.0 - Partly cloudy 10 - - - -
29/10:00am 12.7 W 19 27 1013.6 - 0.0 - Partly cloudy 10 - - - -
29/09:30am 12.4 W 21 27 1013.7 - 0.0 - Partly cloudy 10 - - - -
29/09:00am 12.6 W 21 28 1013.8 - 0.4 - Mostly cloudy 10 - - - -
29/08:30am 12.3 W 21 30 1014.0 - 0.4 - Partly cloudy 10 - - - -
29/08:07am 12.1 W 20 30 1014.0 - 0.4 - Partly cloudy 10 - - - -
29/08:00am 12.0 W 22 28 1014.1 - 0.4 - Partly cloudy 10 - - - -
29/07:30am 12.1 W 21 28 1014.0 - 0.4 - Partly cloudy 10 - - - -
29/07:16am 12.3 W 24 34 1013.8 - 0.4 - Partly cloudy 10 - - - -
29/07:00am 12.2 W 23 31 1013.8 - 0.4 - Cloudy 10 - - - -
29/06:38am 12.1 W 23 33 1013.8 - 0.4 - Partly cloudy 10 - - - -
29/06:30am 12.0 W 25 33 1013.7 - 0.4 - Partly cloudy 10 - - - -
29/06:25am 12.0 W 23 33 1013.6 - 0.4 - Partly cloudy 10 - - - -
29/06:00am 12.1 WNW 21 28 1013.7 - 0.2 - Cloudy 10 - - - -
29/05:30am 12.2 W 21 25 1013.8 - 0.2 - Partly cloudy 10 - - - -
29/05:00am 12.1 W 19 22 1013.9 - 0.2 - Partly cloudy 10 - - - -
29/04:30am 11.8 W 22 27 1014.1 - 0.2 - Partly cloudy 10 - - - -
29/04:00am 11.9 W 20 27 1014.0 - 0.2 - Partly cloudy 10 - - - -
29/03:30am 12.0 W 21 28 1014.3 - 0.2 - Partly cloudy 10 - - - -
29/03:00am 11.7 W 17 21 1014.5 - 0.2 - Cloudy 10 - - - -
29/02:30am 11.0 W 15 18 1014.9 - 0.2 - - 10 - - - -
29/02:00am 10.9 W 19 25 1015.2 - 0.2 - Partly cloudy 10 - - - -
29/01:49am 10.8 W 22 28 1015.3 - 0.2 - Partly cloudy 10 - - - -
29/01:35am 10.9 W 22 33 1015.5 - 0.2 - Partly cloudy 10 - - - -
29/01:34am 10.9 W 22 29 1015.5 - 0.2 - Partly cloudy 10 - - - -
29/01:32am 10.9 W 22 29 1015.4 - 0.2 - Partly cloudy 10 - - - -
29/01:30am 10.8 W 22 29 1015.4 - 0.2 - Partly cloudy 10 - - - -
29/01:28am 10.8 W 23 29 1015.3 - 0.2 - Partly cloudy 10 - - - -
29/01:16am 11.2 W 21 31 1015.3 - 0.2 - Partly cloudy 5 - - - -
29/01:13am 11.5 W 19 29 1015.3 - 0.2 - Partly cloudy 10 - - - -
29/01:00am 11.3 W 16 20 1015.4 - 0.2 - Partly cloudy 10 - - - -
29/12:30am 10.7 W 18 23 1015.7 - 0.2 - Partly cloudy 10 - - - -
29/12:03am 11.1 W 25 36 1015.9 - 0.2 - Partly cloudy 5 - - - -
29/12:00am 11.5 W 23 36 1016.0 - 0.2 - Partly cloudy 10 - - - -
 
Date/Time
EST
Temp
°C
Wind Pressure Rain since
9am
mm
Weather Cloud Vis
km
Sea
Height
m
Swell
Dir  Spd
kts
Gust
kts
hPa Trend Height
m
Period
s
Dir
28/11:58pm 11.8 W 21 31 1015.8 - 0.2 - Partly cloudy 10 - - - -
28/11:30pm 11.6 W 19 25 1016.1 - 0.2 - Partly cloudy 10 - - - -
28/11:01pm 12.2 W 20 32 1016.3 - 0.2 - Partly cloudy 10 - - - -
28/11:00pm 12.2 W 19 28 1016.3 - 0.2 - Partly cloudy 10 - - - -
28/10:30pm 12.0 W 18 22 1016.4 - 0.2 - Partly cloudy 10 - - - -
28/10:00pm 11.7 W 18 24 1016.7 - 0.2 - Partly cloudy 10 - - - -
28/09:30pm 11.1 W 20 26 1016.9 - 0.2 - Partly cloudy 10 - - - -
28/09:11pm 11.1 W 21 26 1017.1 - 0.2 - Partly cloudy 10 - - - -
28/09:00pm 11.0 W 23 31 1017.2 - 0.2 Rain Mostly cloudy 5 - - - -
28/08:53pm 11.4 W 19 31 1017.3 - 0.0 - Partly cloudy 5 - - - -
28/08:50pm 11.5 W 17 27 1017.1 - 0.0 - Partly cloudy 9 - - - -
28/08:30pm 11.7 W 20 26 1017.1 - 0.0 - Partly cloudy 10 - - - -
28/08:00pm 11.1 W 28 39 1017.2 - 0.0 - Partly cloudy 9 - - - -
28/07:39pm 12.1 W 28 38 1017.0 - 0.0 - Partly cloudy 10 - - - -
28/07:30pm 12.1 W 25 31 1017.0 - 0.0 - Partly cloudy 10 - - - -
28/07:00pm 12.0 W 26 32 1016.8 - 0.0 - Partly cloudy 10 - - - -
28/06:30pm 11.7 W 28 34 1016.5 - 0.0 - Partly cloudy 10 - - - -
28/06:01pm 11.8 W 26 36 1016.3 - 0.0 - Partly cloudy 10 - - - -
28/06:00pm 11.8 W 26 34 1016.2 - 0.0 - Cloudy 10 - - - -
28/05:34pm 11.9 W 29 39 1015.6 - 0.0 - Partly cloudy 10 - - - -
28/05:30pm 12.1 W 29 36 1015.6 - 0.0 - Partly cloudy 10 - - - -
28/05:20pm 12.2 W 25 35 1015.4 - 0.0 - Partly cloudy 10 - - - -
28/05:00pm 12.0 W 26 34 1015.2 - 0.0 - Partly cloudy 10 - - - -
28/04:57pm 12.0 W 27 34 1015.1 - 0.0 - Partly cloudy 10 - - - -
28/04:47pm 12.1 W 23 29 1014.9 - 0.0 - Partly cloudy 10 - - - -
28/04:31pm 12.0 W 24 35 1014.8 - 0.0 - Partly cloudy 10 - - - -
28/04:30pm 12.0 W 23 32 1014.8 - 0.0 - Partly cloudy 10 - - - -
28/04:00pm 12.4 W 24 34 1014.6 - 0.0 - Partly cloudy 10 - - - -
28/03:34pm 12.5 W 23 33 1014.6 - 0.0 - Partly cloudy 10 - - - -
28/03:30pm 12.8 W 22 29 1014.5 - 0.0 - Partly cloudy 10 - - - -
28/03:00pm 12.7 W 28 39 1014.8 - 0.0 - Cloudy 10 - - - -
28/02:31pm 13.1 W 27 37 1014.7 - 0.0 - Partly cloudy 10 - - - -
28/02:30pm 13.1 W 26 33 1014.7 - 0.0 - Partly cloudy 10 - - - -
28/02:03pm 12.9 W 25 36 1014.5 - 0.0 - Partly cloudy 10 - - - -
28/02:00pm 13.0 W 25 33 1014.5 - 0.0 - Partly cloudy 10 - - - -
28/01:32pm 12.9 W 25 36 1014.6 - 0.0 - Partly cloudy 10 - - - -
28/01:30pm 12.8 W 25 32 1014.6 - 0.0 - Partly cloudy 10 - - - -
28/01:02pm 12.7 W 26 36 1014.9 - 0.0 - Partly cloudy 9 - - - -
28/01:00pm 12.6 W 27 36 1014.9 - 0.0 - Partly cloudy 9 - - - -
28/12:32pm 13.2 W 24 34 1014.9 - 0.0 - Partly cloudy 10 - - - -
28/12:30pm 13.4 W 23 31 1015.0 - 0.0 - Partly cloudy 10 - - - -
28/12:00pm 13.5 W 25 41 1015.0 - 0.0 - Cloudy 10 - - - -
28/11:30am 13.0 W 27 33 1015.1 - 0.0 - Partly cloudy 10 - - - -
28/11:14am 13.3 W 26 37 1015.1 - 0.0 - Partly cloudy 10 - - - -
28/11:00am 12.9 W 25 33 1015.2 - 0.0 - Partly cloudy 10 - - - -
28/10:36am 12.9 W 25 35 1015.2 - 0.0 - Partly cloudy 10 - - - -
28/10:30am 13.0 W 27 35 1015.2 - 0.0 - Partly cloudy 10 - - - -
28/10:05am 12.8 W 25 35 1015.2 - 0.0 - Partly cloudy 10 - - - -
28/10:00am 12.7 W 23 31 1015.2 - 0.0 - Partly cloudy 10 - - - -
28/09:30am 12.4 W 26 34 1014.9 - 0.0 - Partly cloudy 10 - - - -
28/09:00am 12.4 W 24 32 1014.9 - 1.6 - Partly cloudy 10 - - - -
28/08:30am 11.7 W 25 33 1014.7 - 1.6 - Partly cloudy 10 - - - -
28/08:00am 11.6 W 25 33 1014.5 - 1.6 - Partly cloudy 10 - - - -
28/07:39am 11.5 W 25 35 1014.6 - 1.6 - Partly cloudy 10 - - - -
28/07:30am 11.2 W 22 29 1014.6 - 1.6 - Partly cloudy 10 - - - -
28/07:18am 11.0 W 23 33 1014.6 - 1.6 - Partly cloudy 7 - - - -
28/07:12am 11.2 W 24 33 1014.5 - 1.6 - Partly cloudy 5 - - - -
28/07:10am 11.3 W 23 33 1014.6 - 1.6 - Partly cloudy 6 - - - -
28/07:00am 11.2 W 23 29 1014.6 - 1.6 - Partly cloudy 10 - - - -
28/06:34am 11.3 W 22 33 1014.5 - 1.2 - Partly cloudy - - - - -
28/06:30am 11.5 W 21 29 1014.4 - 0.8 - Partly cloudy 8 - - - -
28/06:17am 11.7 W 20 27 1014.3 - 0.4 - Partly cloudy 5 - - - -
28/06:00am 11.9 W 20 30 1014.2 - 0.2 - Cloudy 10 - - - -
28/05:44am 11.9 W 20 31 1014.1 - 0.2 - Partly cloudy 10 - - - -
28/05:30am 11.7 W 21 28 1014.0 - 0.2 - Partly cloudy 10 - - - -
28/05:10am 11.4 W 22 28 1013.7 - 0.2 - Partly cloudy 10 - - - -
28/05:00am 11.2 W 23 33 1013.6 - 0.2 - Partly cloudy 3 - - - -
28/04:52am 11.6 W 22 33 1013.5 - 0.2 - Partly cloudy 5 - - - -
28/04:50am 11.8 W 20 31 1013.6 - 0.0 - Partly cloudy 9 - - - -
28/04:30am 11.5 W 23 30 1013.5 - 0.0 - Partly cloudy 10 - - - -
28/04:00am 11.8 W 23 29 1013.9 - 0.0 - Partly cloudy 10 - - - -
28/03:33am 12.0 W 22 29 1013.8 - 0.0 - Partly cloudy 10 - - - -
28/03:30am 11.9 W 22 29 1013.9 - 0.0 - Partly cloudy 10 - - - -
28/03:20am 11.9 W 22 32 1013.7 - 0.0 - Partly cloudy 10 - - - -
28/03:11am 11.9 W 21 32 1013.7 - 0.0 - Partly cloudy 10 - - - -
28/03:00am 11.9 W 22 29 1013.6 - 0.0 - Cloudy 10 - - - -
28/02:37am 11.6 W 20 31 1013.4 - 0.0 - Partly cloudy 10 - - - -
28/02:30am 11.7 W 20 25 1013.4 - 0.0 - Partly cloudy 10 - - - -
28/02:00am 11.8 W 21 29 1013.3 - 0.0 - Partly cloudy 10 - - - -
28/01:30am 11.8 W 25 33 1013.2 - 0.0 - Partly cloudy 10 - - - -
28/01:00am 11.7 W 25 34 1012.8 - 0.0 - Partly cloudy 10 - - - -
28/12:44am 11.6 W 22 32 1012.7 - 0.0 - Partly cloudy 10 - - - -
28/12:30am 11.4 W 23 30 1012.7 - 0.0 - Partly cloudy 10 - - - -
28/12:00am 11.9 W 27 34 1012.7 - 0.0 - Partly cloudy 10 - - - -
 
Date/Time
EST
Temp
°C
Wind Pressure Rain since
9am
mm
Weather Cloud Vis
km
Sea
Height
m
Swell
Dir  Spd
kts
Gust
kts
hPa Trend Height
m
Period
s
Dir
27/11:30pm 12.0 W 31 38 1012.9 - 0.0 - Partly cloudy 10 - - - -
27/11:16pm 12.0 W 28 38 1012.9 - 0.0 - Partly cloudy 10 - - - -

Other Formats:

Comma delimited format used in spreadsheet applications
http://www.bom.gov.au/fwo/IDT60701/IDT60701.94980.axf

JavaScript Object Notation format (JSON) in row-major order
http://www.bom.gov.au/fwo/IDT60701/IDT60701.94980.json